createdAt,value
2019-04-13T00:00:34.357Z,2.90
2019-04-13T00:03:03.387Z,2.90
2019-04-13T00:05:54.139Z,2.80
2019-04-13T00:08:25.104Z,2.80
2019-04-13T00:11:04.715Z,2.80
2019-04-13T00:13:33.359Z,2.80
2019-04-13T00:16:02.533Z,2.80
2019-04-13T00:18:31.624Z,2.80
2019-04-13T00:21:00.660Z,2.80
2019-04-13T00:23:29.377Z,2.70
2019-04-13T00:25:58.041Z,2.70
2019-04-13T00:28:26.694Z,2.80
2019-04-13T00:30:55.381Z,2.70
2019-04-13T00:33:24.493Z,2.70
2019-04-13T00:35:53.440Z,2.70
2019-04-13T00:38:22.166Z,2.70
2019-04-13T00:40:50.842Z,2.70
2019-04-13T00:43:19.993Z,2.70
2019-04-13T00:45:48.739Z,2.70
2019-04-13T00:48:29.523Z,2.70
2019-04-13T00:50:58.204Z,2.60
2019-04-13T00:53:27.183Z,2.60
2019-04-13T00:55:56.088Z,2.60
2019-04-13T00:58:24.861Z,2.60
2019-04-13T01:00:53.582Z,2.60
2019-04-13T01:03:22.497Z,2.60
2019-04-13T01:05:51.150Z,2.60
2019-04-13T01:08:19.783Z,2.60
2019-04-13T01:10:48.887Z,2.60
2019-04-13T01:13:17.607Z,2.50
2019-04-13T01:15:46.632Z,2.60
2019-04-13T01:18:15.517Z,2.60
2019-04-13T01:20:44.395Z,2.60
2019-04-13T01:23:13.103Z,2.60
2019-04-13T01:25:42.005Z,2.50
2019-04-13T01:28:10.881Z,2.50
2019-04-13T01:30:39.909Z,2.50
2019-04-13T01:33:11.087Z,2.50
2019-04-13T01:35:39.775Z,2.50
2019-04-13T01:38:08.432Z,2.50
2019-04-13T01:40:37.347Z,2.50
2019-04-13T01:43:06.106Z,2.50
2019-04-13T01:45:34.853Z,2.50
2019-04-13T01:48:03.865Z,2.40
2019-04-13T01:50:32.862Z,2.50
2019-04-13T01:53:11.672Z,2.40
2019-04-13T01:55:41.211Z,2.40
2019-04-13T01:58:10.182Z,2.40
2019-04-13T02:00:49.906Z,2.40
2019-04-13T02:03:18.594Z,2.40
2019-04-13T02:06:00.014Z,2.40
2019-04-13T02:08:54.245Z,2.40
2019-04-13T02:11:29.974Z,2.40
2019-04-13T02:13:58.654Z,2.30
2019-04-13T02:16:27.676Z,2.40
2019-04-13T02:18:56.762Z,2.40
2019-04-13T02:21:25.534Z,2.40
2019-04-13T02:23:54.219Z,2.30
2019-04-13T02:26:23.213Z,2.30
2019-04-13T02:28:51.882Z,2.30
2019-04-13T02:31:20.542Z,2.30
2019-04-13T02:33:49.874Z,2.40
2019-04-13T02:36:18.823Z,2.30
2019-04-13T02:38:48.082Z,2.30
2019-04-13T02:41:17.113Z,2.30
2019-04-13T02:43:46.894Z,2.40
2019-04-13T02:46:15.548Z,2.50
2019-04-13T02:48:44.220Z,2.50
2019-04-13T02:51:13.027Z,2.50
2019-04-13T02:53:42.205Z,2.40
2019-04-13T02:56:11.574Z,2.40
2019-04-13T02:58:40.273Z,2.40
2019-04-13T03:01:09.218Z,2.30
2019-04-13T03:03:38.365Z,2.40
2019-04-13T03:06:07.079Z,2.30
2019-04-13T03:08:36.083Z,2.30
2019-04-13T03:11:05.016Z,2.30
2019-04-13T03:13:36.119Z,2.30
2019-04-13T03:16:15.066Z,2.30
2019-04-13T03:19:02.680Z,2.30
2019-04-13T03:21:31.386Z,2.40
2019-04-13T03:24:00.059Z,2.40
2019-04-13T03:26:28.726Z,2.40
2019-04-13T03:28:57.369Z,2.40
2019-04-13T03:31:26.023Z,2.40
2019-04-13T03:33:54.746Z,2.40
2019-04-13T03:36:23.690Z,2.40
2019-04-13T03:38:52.355Z,2.40
2019-04-13T03:41:21.415Z,2.50
2019-04-13T03:43:50.148Z,2.50
2019-04-13T03:46:19.207Z,2.50
2019-04-13T03:48:47.886Z,2.40
2019-04-13T03:51:16.612Z,2.50
2019-04-13T03:53:45.256Z,2.50
2019-04-13T03:56:13.897Z,2.50
2019-04-13T03:58:42.551Z,2.50
2019-04-13T04:01:11.286Z,2.50
2019-04-13T04:03:40.071Z,2.50
2019-04-13T04:06:11.739Z,2.50
2019-04-13T04:08:39.138Z,2.50
2019-04-13T04:11:07.899Z,2.50
2019-04-13T04:13:36.823Z,2.50
2019-04-13T04:16:05.493Z,2.50
2019-04-13T04:18:34.187Z,2.50
2019-04-13T04:21:03.229Z,2.50
2019-04-13T04:23:31.888Z,2.50
2019-04-13T04:26:00.575Z,2.60
2019-04-13T04:28:30.138Z,2.50
2019-04-13T04:30:58.960Z,2.60
2019-04-13T04:33:27.610Z,2.50
2019-04-13T04:35:56.296Z,2.50
2019-04-13T04:38:24.935Z,2.50
2019-04-13T04:40:53.618Z,2.50
2019-04-13T04:43:22.642Z,2.50
2019-04-13T04:45:51.430Z,2.60
2019-04-13T04:48:20.115Z,2.60
2019-04-13T04:50:48.824Z,2.60
2019-04-13T04:53:17.686Z,2.60
2019-04-13T04:55:46.369Z,2.60
2019-04-13T04:58:15.370Z,2.50
2019-04-13T05:00:44.302Z,2.50
2019-04-13T05:03:13.004Z,2.50
2019-04-13T05:05:41.674Z,2.50
2019-04-13T05:08:14.391Z,2.60
2019-04-13T05:10:41.008Z,2.50
2019-04-13T05:13:09.721Z,2.50
2019-04-13T05:15:38.728Z,2.60
2019-04-13T05:18:07.443Z,2.60
2019-04-13T05:20:36.090Z,2.60
2019-04-13T05:23:04.781Z,2.60
2019-04-13T05:25:34.202Z,2.60
2019-04-13T05:28:03.736Z,2.60
2019-04-13T05:30:32.435Z,2.70
2019-04-13T05:33:01.119Z,2.70
2019-04-13T05:35:29.806Z,2.80
2019-04-13T05:37:58.724Z,2.70
2019-04-13T05:40:27.373Z,2.70
2019-04-13T05:42:56.103Z,2.70
2019-04-13T05:45:25.150Z,2.80
2019-04-13T05:47:54.167Z,2.90
2019-04-13T05:50:23.211Z,2.90
2019-04-13T05:52:52.307Z,3.00
2019-04-13T05:55:20.953Z,3.00
2019-04-13T05:57:50.261Z,3.10
2019-04-13T06:00:19.423Z,3.10
2019-04-13T06:02:48.520Z,3.20
2019-04-13T06:05:17.297Z,3.30
2019-04-13T06:07:45.942Z,3.30
2019-04-13T06:10:14.768Z,3.20
2019-04-13T06:12:43.451Z,3.10
2019-04-13T06:15:12.507Z,3.20
2019-04-13T06:17:41.602Z,3.30
2019-04-13T06:20:10.442Z,3.30
2019-04-13T06:22:39.927Z,3.30
2019-04-13T06:25:10.012Z,3.30
2019-04-13T06:27:42.184Z,3.30
2019-04-13T06:30:28.924Z,3.30
2019-04-13T06:33:04.915Z,3.20
2019-04-13T06:35:33.571Z,3.10
2019-04-13T06:38:02.602Z,3.30
2019-04-13T06:40:31.262Z,3.30
2019-04-13T06:42:59.926Z,3.40
2019-04-13T06:45:28.579Z,3.50
2019-04-13T06:48:00.181Z,3.40
2019-04-13T06:50:27.966Z,3.50
2019-04-13T06:52:56.673Z,3.60
2019-04-13T06:55:25.557Z,3.70
2019-04-13T06:57:54.229Z,3.70
2019-04-13T07:00:22.987Z,3.70
2019-04-13T07:02:52.735Z,3.90
2019-04-13T07:05:21.537Z,3.70
2019-04-13T07:08:10.772Z,3.90
2019-04-13T07:10:57.463Z,3.90
2019-04-13T07:13:29.845Z,4.00
2019-04-13T07:16:02.863Z,4.10
2019-04-13T07:18:33.717Z,4.30
2019-04-13T07:21:01.969Z,4.20
2019-04-13T07:23:33.673Z,4.10
2019-04-13T07:26:05.661Z,4.20
2019-04-13T07:28:31.807Z,4.20
2019-04-13T07:31:01.270Z,4.30
2019-04-13T07:33:30.624Z,4.30
2019-04-13T07:36:00.018Z,4.40
2019-04-13T07:38:28.682Z,4.20
2019-04-13T07:40:57.432Z,4.40
2019-04-13T07:43:26.139Z,4.80
2019-04-13T07:46:12.847Z,5.10
2019-04-13T07:49:14.064Z,5.20
2019-04-13T07:51:51.775Z,5.50
2019-04-13T07:54:20.531Z,5.50
2019-04-13T07:56:49.245Z,5.70
2019-04-13T07:59:19.112Z,5.90
2019-04-13T08:01:56.618Z,6.20
2019-04-13T08:04:18.843Z,6.40
2019-04-13T08:06:47.538Z,6.50
2019-04-13T08:09:16.473Z,6.70
2019-04-13T08:11:45.135Z,6.70
2019-04-13T08:14:18.404Z,7.00
2019-04-13T08:16:47.402Z,7.40
2019-04-13T08:19:18.501Z,7.50
2019-04-13T08:21:47.560Z,7.20
2019-04-13T08:24:16.633Z,7.10
2019-04-13T08:26:46.474Z,7.30
2019-04-13T08:29:15.944Z,7.20
2019-04-13T08:31:44.701Z,7.30
2019-04-13T08:34:13.443Z,7.30
2019-04-13T08:36:42.303Z,7.30
2019-04-13T08:39:14.412Z,7.60
2019-04-13T08:41:41.887Z,7.50
2019-04-13T08:44:10.597Z,7.60
2019-04-13T08:46:39.695Z,7.70
2019-04-13T08:49:08.421Z,8.00
2019-04-13T08:51:37.223Z,7.80
2019-04-13T08:54:05.957Z,7.90
2019-04-13T08:56:34.679Z,7.60
2019-04-13T08:59:04.174Z,7.40
2019-04-13T09:01:33.114Z,8.30
2019-04-13T09:04:02.093Z,8.50
2019-04-13T09:06:30.775Z,7.80
2019-04-13T09:09:02.417Z,7.40
2019-04-13T09:11:30.973Z,7.90
2019-04-13T09:14:00.453Z,8.60
2019-04-13T09:16:32.090Z,8.60
2019-04-13T09:19:19.070Z,8.30
2019-04-13T09:21:57.728Z,8.50
2019-04-13T09:24:26.819Z,9.00
2019-04-13T09:26:55.533Z,9.60
2019-04-13T09:29:24.364Z,10.00
2019-04-13T09:31:53.118Z,9.80
2019-04-13T09:34:30.473Z,9.90
2019-04-13T09:37:00.154Z,10.00
2019-04-13T09:39:29.503Z,9.60
2019-04-13T09:41:58.293Z,9.30
2019-04-13T09:44:31.194Z,8.90
2019-04-13T09:47:08.788Z,9.20
2019-04-13T09:49:37.667Z,9.50
2019-04-13T09:52:06.479Z,10.00
2019-04-13T09:54:35.159Z,10.80
2019-04-13T09:57:03.986Z,10.30
2019-04-13T09:59:33.547Z,9.80
2019-04-13T10:02:02.334Z,10.10
2019-04-13T10:04:31.316Z,10.30
2019-04-13T10:07:00.576Z,10.90
2019-04-13T10:09:29.276Z,11.60
2019-04-13T10:12:20.403Z,12.10
2019-04-13T10:15:07.079Z,12.00
2019-04-13T10:17:57.481Z,12.60
2019-04-13T10:20:26.210Z,11.30
2019-04-13T10:22:55.875Z,10.30
2019-04-13T10:25:25.334Z,9.70
2019-04-13T10:27:54.043Z,8.80
2019-04-13T10:30:22.888Z,8.50
2019-04-13T10:32:51.642Z,8.20
2019-04-13T10:35:20.488Z,8.10
2019-04-13T10:37:49.631Z,8.00
2019-04-13T10:40:18.341Z,7.90
2019-04-13T10:42:47.253Z,8.00
2019-04-13T10:45:40.911Z,7.90
2019-04-13T10:48:17.627Z,7.90
2019-04-13T10:50:52.878Z,8.20
2019-04-13T10:53:21.437Z,8.20
2019-04-13T10:55:50.213Z,8.30
2019-04-13T10:58:19.215Z,8.20
2019-04-13T11:00:47.976Z,8.20
2019-04-13T11:03:16.659Z,8.10
2019-04-13T11:05:45.616Z,8.30
2019-04-13T11:08:14.351Z,7.90
2019-04-13T11:10:43.171Z,7.80
2019-04-13T11:13:11.918Z,7.80
2019-04-13T11:15:41.913Z,7.60
2019-04-13T11:18:11.799Z,7.40
2019-04-13T11:20:45.080Z,7.30
2019-04-13T11:23:11.388Z,7.30
2019-04-13T11:25:40.471Z,7.20
2019-04-13T11:28:09.232Z,7.10
2019-04-13T11:30:37.925Z,7.30
2019-04-13T11:33:06.742Z,7.50
2019-04-13T11:35:36.404Z,7.60
2019-04-13T11:38:05.684Z,7.60
2019-04-13T11:40:34.404Z,7.50
2019-04-13T11:43:28.418Z,7.60
2019-04-13T11:46:11.386Z,7.90
2019-04-13T11:48:47.197Z,7.80
2019-04-13T11:51:24.907Z,8.00
2019-04-13T11:53:54.319Z,7.80
2019-04-13T11:56:23.755Z,7.60
2019-04-13T11:58:52.439Z,7.40
2019-04-13T12:01:40.378Z,7.10
2019-04-13T12:04:21.925Z,7.00
2019-04-13T12:07:11.793Z,7.10
2019-04-13T12:09:54.380Z,7.00
2019-04-13T12:12:48.612Z,6.80
2019-04-13T12:15:38.687Z,6.70
2019-04-13T12:18:25.934Z,6.50
2019-04-13T12:21:23.102Z,6.60
2019-04-13T12:23:53.192Z,6.50
2019-04-13T12:26:22.418Z,6.40
2019-04-13T12:28:52.225Z,6.30
2019-04-13T12:31:22.110Z,6.30
2019-04-13T12:33:51.753Z,6.30
2019-04-13T12:36:21.691Z,6.40
2019-04-13T12:38:56.138Z,6.60
2019-04-13T12:41:26.514Z,6.70
2019-04-13T12:43:55.208Z,6.70
2019-04-13T12:46:23.976Z,6.90
2019-04-13T12:48:53.477Z,7.00
2019-04-13T12:51:22.239Z,6.90
2019-04-13T12:53:51.265Z,7.10
2019-04-13T12:56:19.985Z,7.10
2019-04-13T12:58:48.792Z,7.20
2019-04-13T13:01:27.538Z,7.20
2019-04-13T13:03:56.347Z,7.20
2019-04-13T13:06:25.218Z,7.40
2019-04-13T13:08:54.284Z,7.60
2019-04-13T13:11:23.694Z,7.90
2019-04-13T13:13:52.941Z,8.10
2019-04-13T13:16:22.848Z,8.10
2019-04-13T13:18:51.559Z,8.10
2019-04-13T13:21:20.703Z,8.20
2019-04-13T13:23:51.591Z,8.00
2019-04-13T13:26:21.676Z,8.10
2019-04-13T13:28:50.267Z,8.20
2019-04-13T13:31:19.020Z,8.60
2019-04-13T13:33:48.023Z,8.40
2019-04-13T13:36:19.662Z,8.30
2019-04-13T13:38:47.566Z,8.50
2019-04-13T13:41:16.347Z,8.10
2019-04-13T13:43:45.622Z,7.80
2019-04-13T13:46:15.439Z,7.80
2019-04-13T13:48:44.457Z,7.90
2019-04-13T13:51:13.136Z,8.20
2019-04-13T13:53:42.613Z,8.50
2019-04-13T13:56:11.610Z,8.30
2019-04-13T13:58:47.167Z,8.40
2019-04-13T14:01:19.886Z,8.30
2019-04-13T14:03:48.664Z,8.40
2019-04-13T14:06:18.474Z,8.40
2019-04-13T14:08:47.864Z,8.50
2019-04-13T14:11:19.207Z,8.20
2019-04-13T14:13:48.577Z,7.90
2019-04-13T14:16:18.247Z,7.70
2019-04-13T14:18:47.030Z,7.80
2019-04-13T14:21:16.214Z,7.90
2019-04-13T14:23:45.622Z,8.00
2019-04-13T14:26:14.607Z,8.00
2019-04-13T14:28:43.315Z,7.90
2019-04-13T14:31:12.464Z,8.00
2019-04-13T14:33:41.703Z,8.00
2019-04-13T14:36:10.779Z,7.80
2019-04-13T14:38:39.540Z,7.80
2019-04-13T14:41:09.978Z,8.00
2019-04-13T14:43:40.003Z,8.30
2019-04-13T14:46:09.815Z,8.40
2019-04-13T14:48:39.401Z,8.40
2019-04-13T14:51:08.255Z,8.30
2019-04-13T14:53:37.008Z,8.20
2019-04-13T14:56:06.651Z,8.10
2019-04-13T14:58:35.779Z,8.00
2019-04-13T15:01:04.691Z,8.00
2019-04-13T15:03:33.494Z,7.90
2019-04-13T15:06:02.175Z,7.80
2019-04-13T15:08:31.291Z,7.60
2019-04-13T15:11:15.853Z,7.60
2019-04-13T15:13:31.638Z,7.60
2019-04-13T15:16:03.337Z,7.60
2019-04-13T15:18:37.081Z,7.60
2019-04-13T15:21:07.055Z,7.60
2019-04-13T15:23:38.470Z,7.70
2019-04-13T15:26:06.416Z,7.80
2019-04-13T15:28:37.895Z,7.70
2019-04-13T15:31:08.210Z,7.70
2019-04-13T15:33:37.250Z,7.70
2019-04-13T15:36:07.815Z,7.70
2019-04-13T15:38:37.374Z,7.70
2019-04-13T15:41:09.601Z,7.50
2019-04-13T15:43:38.301Z,7.70
2019-04-13T15:46:07.409Z,7.90
2019-04-13T15:48:36.848Z,7.80
2019-04-13T15:51:07.438Z,7.70
2019-04-13T15:53:36.669Z,7.60
2019-04-13T15:56:06.675Z,7.70
2019-04-13T15:58:35.594Z,7.50
2019-04-13T16:01:04.916Z,7.50
2019-04-13T16:03:33.622Z,7.40
2019-04-13T16:06:02.528Z,7.50
2019-04-13T16:08:34.953Z,7.60
2019-04-13T16:11:08.712Z,7.60
2019-04-13T16:13:39.007Z,7.70
2019-04-13T16:16:09.523Z,7.80
2019-04-13T16:18:39.575Z,7.70
2019-04-13T16:21:08.548Z,7.70
2019-04-13T16:23:37.338Z,7.70
2019-04-13T16:26:06.514Z,7.70
2019-04-13T16:28:41.755Z,7.70
2019-04-13T16:31:29.027Z,7.60
2019-04-13T16:34:15.998Z,7.60
2019-04-13T16:36:51.839Z,7.50
2019-04-13T16:39:23.207Z,7.50
2019-04-13T16:42:01.415Z,7.40
2019-04-13T16:44:38.208Z,7.40
2019-04-13T16:47:24.574Z,7.30
2019-04-13T16:50:13.740Z,7.20
2019-04-13T16:52:53.095Z,7.20
2019-04-13T16:55:26.630Z,7.20
2019-04-13T16:58:09.396Z,7.20
2019-04-13T17:01:02.499Z,7.30
2019-04-13T17:03:52.222Z,7.20
2019-04-13T17:06:24.110Z,7.10
2019-04-13T17:08:51.800Z,7.10
2019-04-13T17:11:21.261Z,7.10
2019-04-13T17:13:51.119Z,7.00
2019-04-13T17:16:21.187Z,6.90
2019-04-13T17:18:56.823Z,7.00
2019-04-13T17:21:38.496Z,7.00
2019-04-13T17:24:28.248Z,6.90
2019-04-13T17:27:05.606Z,6.90
2019-04-13T17:29:48.592Z,6.80
2019-04-13T17:32:31.762Z,6.80
2019-04-13T17:35:03.889Z,6.80
2019-04-13T17:37:32.659Z,6.80
2019-04-13T17:40:01.454Z,6.70
2019-04-13T17:42:46.837Z,6.60
2019-04-13T17:45:33.898Z,6.60
2019-04-13T17:48:14.827Z,6.50
2019-04-13T17:51:01.415Z,6.50
2019-04-13T17:53:38.590Z,6.50
2019-04-13T17:56:15.389Z,6.40
2019-04-13T17:59:03.376Z,6.50
2019-04-13T18:01:54.322Z,6.50
2019-04-13T18:04:47.854Z,6.40
2019-04-13T18:07:38.918Z,6.40
2019-04-13T18:10:38.172Z,6.30
2019-04-13T18:13:17.678Z,6.30
2019-04-13T18:16:11.349Z,6.30
2019-04-13T18:18:43.362Z,6.30
2019-04-13T18:21:13.504Z,6.20
2019-04-13T18:23:42.544Z,6.20
2019-04-13T18:26:12.619Z,6.20
2019-04-13T18:28:42.231Z,6.20
2019-04-13T18:31:11.217Z,6.10
2019-04-13T18:33:41.171Z,6.10
2019-04-13T18:36:11.290Z,6.10
2019-04-13T18:38:41.805Z,6.10
2019-04-13T18:41:12.203Z,6.10
2019-04-13T18:43:41.346Z,6.10
2019-04-13T18:46:11.170Z,6.10
2019-04-13T18:48:40.446Z,6.10
2019-04-13T18:51:10.412Z,6.00
2019-04-13T18:53:41.831Z,6.00
2019-04-13T18:56:10.326Z,6.00
2019-04-13T18:58:39.549Z,6.00
2019-04-13T19:01:09.477Z,6.00
2019-04-13T19:03:38.973Z,6.00
2019-04-13T19:06:07.793Z,6.00
2019-04-13T19:08:36.535Z,6.00
2019-04-13T19:11:05.274Z,5.90
2019-04-13T19:13:33.969Z,5.90
2019-04-13T19:16:02.724Z,5.90
2019-04-13T19:18:31.853Z,5.80
2019-04-13T19:21:00.630Z,5.80
2019-04-13T19:23:29.741Z,5.80
2019-04-13T19:25:58.547Z,5.80
2019-04-13T19:28:27.466Z,5.80
2019-04-13T19:30:56.177Z,5.80
2019-04-13T19:33:24.897Z,5.80
2019-04-13T19:35:53.662Z,5.70
2019-04-13T19:38:22.484Z,5.60
2019-04-13T19:40:51.158Z,5.60
2019-04-13T19:43:19.855Z,5.60
2019-04-13T19:45:48.586Z,5.50
2019-04-13T19:48:17.396Z,5.40
2019-04-13T19:50:46.243Z,5.40
2019-04-13T19:53:49.235Z,5.30
2019-04-13T19:56:20.219Z,5.30
2019-04-13T19:58:48.902Z,5.30
2019-04-13T20:01:26.495Z,5.30
2019-04-13T20:03:55.182Z,5.30
2019-04-13T20:06:23.940Z,5.30
2019-04-13T20:08:53.547Z,5.30
2019-04-13T20:11:23.535Z,5.20
2019-04-13T20:14:01.395Z,5.20
2019-04-13T20:16:23.883Z,5.20
2019-04-13T20:18:52.629Z,5.20
2019-04-13T20:21:21.343Z,5.20
2019-04-13T20:23:50.063Z,5.20
2019-04-13T20:26:18.771Z,5.20
2019-04-13T20:28:48.288Z,5.20
2019-04-13T20:31:18.141Z,5.20
2019-04-13T20:33:48.078Z,5.20
2019-04-13T20:36:21.011Z,5.20
2019-04-13T20:38:49.562Z,5.20
2019-04-13T20:41:23.690Z,5.10
2019-04-13T20:43:59.631Z,5.20
2019-04-13T20:46:23.643Z,5.10
2019-04-13T20:48:53.338Z,5.10
2019-04-13T20:51:23.480Z,5.10
2019-04-13T20:53:52.461Z,5.00
2019-04-13T20:56:21.207Z,5.00
2019-04-13T20:58:51.088Z,5.00
2019-04-13T21:01:21.145Z,5.00
2019-04-13T21:03:51.134Z,5.00
2019-04-13T21:06:20.080Z,5.00
2019-04-13T21:08:52.235Z,5.00
2019-04-13T21:11:19.439Z,5.00
2019-04-13T21:14:01.175Z,4.90
2019-04-13T21:16:19.345Z,5.00
2019-04-13T21:18:49.244Z,4.90
2019-04-13T21:21:19.277Z,4.90
2019-04-13T21:23:48.094Z,4.90
2019-04-13T21:26:17.451Z,4.90
2019-04-13T21:28:47.164Z,4.90
2019-04-13T21:31:17.007Z,4.90
2019-04-13T21:33:47.403Z,4.80
2019-04-13T21:36:17.433Z,4.80
2019-04-13T21:38:47.270Z,4.80
2019-04-13T21:41:17.191Z,4.80
2019-04-13T21:43:47.589Z,4.80
2019-04-13T21:46:17.328Z,4.70
2019-04-13T21:48:46.145Z,4.70
2019-04-13T21:51:29.505Z,4.70
2019-04-13T21:56:21.066Z,4.70
2019-04-13T21:58:51.155Z,4.60
2019-04-13T22:01:36.686Z,4.70
2019-04-13T22:04:07.132Z,4.60
2019-04-13T22:06:37.155Z,4.60
2019-04-13T22:09:08.807Z,4.60
2019-04-13T22:11:38.607Z,4.60
2019-04-13T22:14:08.532Z,4.60
2019-04-13T22:16:39.064Z,4.50
2019-04-13T22:19:09.288Z,4.50
2019-04-13T22:21:39.257Z,4.50
2019-04-13T22:24:09.169Z,4.50
2019-04-13T22:26:39.213Z,4.50
2019-04-13T22:29:15.790Z,4.50
2019-04-13T22:31:55.241Z,4.50
2019-04-13T22:34:59.026Z,4.50
2019-04-13T22:37:29.814Z,4.40
2019-04-13T22:39:59.735Z,4.40
2019-04-13T22:42:29.543Z,4.40
2019-04-13T22:45:03.388Z,4.30
2019-04-13T22:47:30.010Z,4.40
2019-04-13T22:50:37.264Z,4.30
2019-04-13T22:53:14.812Z,4.30
2019-04-13T22:55:49.411Z,4.30
2019-04-13T22:58:19.002Z,4.30
2019-04-13T23:00:51.965Z,4.30
2019-04-13T23:03:22.155Z,4.30
2019-04-13T23:05:52.425Z,4.30
2019-04-13T23:08:24.889Z,4.30
2019-04-13T23:10:55.023Z,4.30
2019-04-13T23:13:25.292Z,4.30
2019-04-13T23:15:55.428Z,4.20
2019-04-13T23:18:25.386Z,4.20
2019-04-13T23:20:56.024Z,4.20
2019-04-13T23:23:24.913Z,4.20
2019-04-13T23:25:53.692Z,4.20
2019-04-13T23:28:22.829Z,4.10
2019-04-13T23:30:51.591Z,4.10
2019-04-13T23:33:21.330Z,4.10
2019-04-13T23:35:50.175Z,4.10
2019-04-13T23:38:18.863Z,4.10
2019-04-13T23:40:48.526Z,4.10
2019-04-13T23:43:17.337Z,4.10
2019-04-13T23:45:47.102Z,4.10
2019-04-13T23:48:15.929Z,4.10
2019-04-13T23:50:45.774Z,4.20
2019-04-13T23:53:16.115Z,4.10
2019-04-13T23:55:59.735Z,4.10
